Latest Coastal Weather Observations for Flinders Island Airport

IDT60701

Issued at 2:03 am EDT Wednesday 25 January 2017 (issued every 10 minutes, with the page automatically refreshed every 10 minutes)

About coastal observations | Map of coastal stations | Coastal observations for TAS | Marine services | Other Formats
Station Details ID: 099005 Name: FLINDERS ISLAND AIRPORT Lat: -40.09 Lon: 148.00 Height: 9.0 m
Data from the previous 72 hours. | See also: Recent months at Flinders Island Airport
Date/Time
EDT
Temp
°C
Wind Pressure Rain since
9am
mm
Weather Cloud Vis
km
Sea
Height
m
Swell
Dir  Spd
kts
Gust
kts
hPa Trend Height
m
Period
s
Dir
25/02:00am 15.4 WSW 19 22 1018.7 - - - Partly cloudy 27 - - - -
25/01:30am 15.7 WSW 19 23 1018.9 - 0.0 - Partly cloudy 10 - - - -
25/01:00am 15.9 WSW 19 23 1018.9 - 0.0 - Partly cloudy 10 - - - -
25/12:30am 16.0 WSW 21 26 1018.4 - 0.0 - Partly cloudy 10 - - - -
25/12:00am 16.1 WSW 22 28 1018.0 - 0.0 - Mostly clear 10 - - - -
 
Date/Time
EDT
Temp
°C
Wind Pressure Rain since
9am
mm
Weather Cloud Vis
km
Sea
Height
m
Swell
Dir  Spd
kts
Gust
kts
hPa Trend Height
m
Period
s
Dir
24/11:30pm 16.4 WSW 22 27 1017.6 - 0.0 - - 10 - - - -
24/11:00pm 16.5 W 26 31 1017.4 - 0.0 - - 10 - - - -
24/10:30pm 16.5 W 24 29 1017.2 - 0.0 - - 10 - - - -
24/10:00pm 16.7 W 25 31 1017.1 - 0.0 - - 10 - - - -
24/09:30pm 16.6 W 25 30 1016.6 - 0.0 - - 10 - - - -
24/09:00pm 16.8 W 26 31 1016.1 - 0.0 - - 10 - - - -
24/08:30pm 16.8 W 28 34 1015.6 - 0.0 - - 10 - - - -
24/08:00pm 17.1 W 27 33 1015.0 - 0.0 - - 10 - - - -
24/07:30pm 17.5 W 27 33 1014.3 - 0.0 - - 10 - - - -
24/07:00pm 18.0 W 29 33 1013.6 - 0.0 - - 10 - - - -
24/06:30pm 18.3 W 27 33 1013.3 - 0.0 - - 10 - - - -
24/06:00pm 18.4 W 29 36 1012.6 - 0.0 - - 10 - - - -
24/05:30pm 19.0 W 28 35 1012.5 - 0.0 - - 10 - - - -
24/05:00pm 18.9 W 30 36 1012.2 - 0.0 - - 10 - - - -
24/04:39pm 19.1 W 28 38 1012.1 - 0.0 - - 10 - - - -
24/04:30pm 19.3 W 30 38 1012.0 - 0.0 - - 10 - - - -
24/04:00pm 19.5 W 29 34 1011.9 - 0.0 - - 10 - - - -
24/03:30pm 19.1 W 30 36 1011.4 - 0.0 - - 10 - - - -
24/03:00pm 20.0 W 31 35 1010.9 - 0.0 - - 10 - - - -
24/02:30pm 19.5 W 30 35 1010.3 - 0.0 - Partly cloudy 10 - - - -
24/02:00pm 19.6 W 31 37 1009.8 - 0.0 - Partly cloudy 10 - - - -
24/01:30pm 19.3 W 30 38 1009.4 - 0.0 - - 10 - - - -
24/01:00pm 19.3 W 30 38 1009.1 - 0.0 - Partly cloudy 10 - - - -
24/12:30pm 19.3 W 32 40 1008.7 - 0.0 - Partly cloudy 10 - - - -
24/12:00pm 19.1 W 31 40 1008.0 - 0.0 - Partly cloudy 10 - - - -
24/11:41am 18.9 W 31 41 1007.8 - 0.0 - Partly cloudy 10 - - - -
24/11:30am 19.1 W 32 40 1007.4 - 0.0 - Partly cloudy 10 - - - -
24/11:08am 18.5 W 32 42 1007.0 - 0.0 - Partly cloudy 10 - - - -
24/11:00am 18.6 W 36 44 1006.9 - 0.0 - - 10 - - - -
24/10:49am 18.3 W 34 44 1006.6 - 0.0 - - 10 - - - -
24/10:30am 18.2 W 37 44 1006.1 - 0.0 - - 10 - - - -
24/10:00am 18.4 W 34 41 1005.1 - 0.0 - - 10 - - - -
24/09:48am 18.0 W 33 44 1004.9 - 0.0 - Partly cloudy 10 - - - -
24/09:30am 18.1 W 35 41 1004.6 - 0.0 - Partly cloudy 10 - - - -
24/09:00am 17.9 W 35 43 1004.2 - 0.0 - Partly cloudy 10 - - - -
24/08:30am 18.2 W 35 43 1003.7 - 0.0 - Partly cloudy 10 - - - -
24/08:06am 18.3 W 30 40 1003.0 - 0.0 - Partly cloudy 10 - - - -
24/08:00am 18.3 W 29 36 1002.8 - 0.0 - Partly cloudy 10 - - - -
24/07:40am 18.1 W 25 35 1002.3 - 0.0 - Partly cloudy 10 - - - -
24/07:30am 18.1 W 24 32 1002.2 - 0.0 - Partly cloudy 10 - - - -
24/07:07am 18.2 W 28 38 1002.0 - 0.0 - Partly cloudy 10 - - - -
24/07:00am 18.3 W 29 35 1001.8 - 0.0 - Partly cloudy 10 - - - -
24/06:30am 18.2 W 25 33 1000.8 - 0.0 - Partly cloudy 10 - - - -
24/06:21am 17.9 W 25 36 1000.7 - 0.0 - Partly cloudy 10 - - - -
24/06:00am 18.5 W 29 39 1000.4 - 0.0 - Cloudy 10 - - - -
24/05:51am 18.7 W 28 38 1000.2 - 0.0 - Partly cloudy 10 - - - -
24/05:50am 18.7 W 27 35 1000.2 - 0.0 - Partly cloudy 10 - - - -
24/05:39am 19.0 WNW 25 33 999.9 - 0.0 - Cloudy 5 - - - -
24/05:30am 19.1 WNW 25 32 999.6 - 0.0 - Partly cloudy 10 - - - -
24/05:22am 19.0 WNW 20 30 999.6 - 0.0 - Partly cloudy 9 - - - -
24/05:08am 19.1 WNW 21 29 999.5 - 0.0 - Partly cloudy 5 - - - -
24/05:04am 19.1 WNW 21 29 999.4 - 0.0 - Partly cloudy 7 - - - -
24/05:00am 19.0 WNW 20 29 999.4 - 0.0 - Partly cloudy 9 - - - -
24/04:47am 18.8 NW 17 28 999.2 - 0.0 - Partly cloudy 3 - - - -
24/04:39am 19.0 WNW 18 26 999.2 - 0.0 - Partly cloudy 2 - - - -
24/04:31am 19.3 WNW 15 25 999.3 - 0.0 - Partly cloudy 5 - - - -
24/04:30am 19.3 WNW 14 19 999.3 - 0.0 - Partly cloudy 6 - - - -
24/04:00am 19.3 NW 9 12 998.7 - 0.0 - Partly cloudy 10 - - - -
24/03:30am 18.7 NNW 6 7 998.8 - 0.0 - Partly cloudy 10 - - - -
24/03:00am 18.7 WNW 7 9 999.3 - 0.0 - Cloudy 10 - - - -
24/02:30am 18.8 NNW 5 7 998.8 - 0.0 - Partly cloudy 10 - - - -
24/02:00am 18.8 CALM 0 3 999.3 - 0.0 - Partly cloudy 10 - - - -
24/01:30am 18.8 NE 3 6 1000.0 - 0.0 - Partly cloudy 10 - - - -
24/01:00am 19.3 N 3 5 1001.1 - 0.0 - Cloudy 10 - - - -
24/12:30am 19.5 NE 5 6 1001.5 - 0.0 - Partly cloudy 10 - - - -
24/12:00am 19.9 NW 7 9 1002.3 - 0.0 - Mostly cloudy 10 - - - -
 
Date/Time
EDT
Temp
°C
Wind Pressure Rain since
9am
mm
Weather Cloud Vis
km
Sea
Height
m
Swell
Dir  Spd
kts
Gust
kts
hPa Trend Height
m
Period
s
Dir
23/11:30pm 20.8 NW 12 15 1002.8 - 0.0 - Cloudy 10 - - - -
23/11:00pm 22.3 WNW 22 33 1003.2 - 0.0 - Cloudy 10 - - - -
23/10:57pm 22.9 NW 21 33 1003.3 - 0.0 - Cloudy 10 - - - -
23/10:53pm 24.5 NW 18 33 1003.1 - 0.0 - Cloudy 10 - - - -
23/10:50pm 26.3 NNW 15 27 1002.9 - 0.0 - Cloudy 10 - - - -
23/10:30pm 27.8 NNW 14 22 1002.5 - 0.0 - Cloudy 10 - - - -
23/10:00pm 24.1 NNE 14 22 1001.6 - 0.0 - Partly cloudy 10 - - - -
23/09:30pm 23.7 NNE 12 16 1001.7 - 0.0 - Partly cloudy 10 - - - -
23/09:00pm 24.0 NNE 5 8 1001.1 - 0.0 - Cloudy 10 - - - -
23/08:30pm 23.0 E 4 6 1000.9 - 0.0 - - 10 - - - -
23/08:00pm 23.6 ENE 6 8 1001.4 - 0.0 - - 10 - - - -
23/07:30pm 23.9 ENE 5 6 1001.5 - 0.0 - Partly cloudy 10 - - - -
23/07:00pm 25.1 NNE 4 5 1001.8 - 0.0 - Partly cloudy 10 - - - -
23/06:30pm 25.7 ENE 7 8 1001.8 - 0.0 - - 10 - - - -
23/06:00pm 26.7 ENE 9 11 1001.7 - 0.0 - Mostly clear 10 - - - -
23/05:30pm 27.4 SE 3 9 1002.0 - 0.0 - - 10 - - - -
23/05:00pm 25.8 S 4 5 1002.7 - 0.0 - - 10 - - - -
23/04:30pm 25.0 SSW 5 6 1003.2 - 0.0 - - 10 - - - -
23/04:00pm 24.4 SW 6 8 1003.6 - 0.0 - - 10 - - - -
23/03:30pm 24.8 WSW 8 10 1004.1 - 0.0 - - 10 - - - -
23/03:00pm 25.2 SW 8 10 1004.0 - 0.0 - - 10 - - - -
23/02:30pm 26.8 SW 8 9 1003.9 - 0.0 - - 10 - - - -
23/02:00pm 26.1 WSW 6 8 1004.7 - 0.0 - - 10 - - - -
23/01:30pm 26.9 SSW 7 8 1005.0 - 0.0 - - 10 - - - -
23/01:00pm 27.3 SW 9 10 1005.4 - 0.0 - - 10 - - - -
23/12:30pm 29.5 WSW 7 9 1005.8 - 0.0 - - 10 - - - -
23/12:00pm 28.2 NE 8 10 1005.9 - 0.0 - - 10 - - - -
23/11:30am 27.2 NNE 10 14 1006.1 - 0.0 - - 10 - - - -
23/11:00am 26.5 NE 11 16 1006.4 - 0.0 - - 10 - - - -
23/10:30am 25.4 NE 11 16 1006.9 - 0.0 - - 10 - - - -
23/10:00am 23.6 NE 11 18 1007.2 - 0.0 - - 10 - - - -
23/09:30am 23.0 NE 13 17 1007.5 - 0.0 - - 10 - - - -
23/09:00am 22.1 ENE 10 15 1008.0 - 0.0 - Mostly clear 10 - - - -
23/08:30am 20.7 NNE 7 9 1008.7 - 0.0 - - 10 - - - -
23/08:00am 20.1 ENE 10 13 1008.7 - 0.0 - - 10 - - - -
23/07:30am 19.6 ENE 6 9 1008.7 - 0.0 - - 10 - - - -
23/07:00am 19.4 ENE 7 9 1008.7 - 0.0 - - 10 - - - -
23/06:30am 18.8 ENE 9 12 1008.7 - 0.0 - - 10 - - - -
23/06:00am 18.3 ESE 6 8 1008.8 - 0.0 - Mostly cloudy 10 - - - -
23/05:30am 18.0 ESE 6 8 1008.5 - 0.0 - - 10 - - - -
23/05:00am 18.1 ENE 6 10 1008.7 - 0.0 - - 10 - - - -
23/04:30am 17.6 E 7 10 1009.2 - 0.0 - - 10 - - - -
23/04:00am 16.7 SSE 5 7 1009.9 - 0.0 - - 10 - - - -
23/03:30am 16.3 SSE 5 9 1009.9 - 0.0 - - 10 - - - -
23/03:00am 16.7 S 3 5 1010.0 - 0.0 - - 10 - - - -
23/02:30am 15.8 SE 4 5 1010.5 - 0.0 - - 10 - - - -
23/02:00am 15.3 S 5 6 1011.2 - 0.0 - - 10 - - - -
23/01:30am 15.1 N 1 4 1011.7 - 0.0 - - 10 - - - -
23/01:00am 16.5 NNE 5 9 1012.5 - 0.0 - - 10 - - - -
23/12:30am 16.0 NNE 2 5 1012.6 - 0.0 - - 10 - - - -
23/12:00am 15.2 NNE 5 10 1012.7 - 0.0 - - 10 - - - -
 
Date/Time
EDT
Temp
°C
Wind Pressure Rain since
9am
mm
Weather Cloud Vis
km
Sea
Height
m
Swell
Dir  Spd
kts
Gust
kts
hPa Trend Height
m
Period
s
Dir
22/11:30pm 13.9 E 3 5 1012.8 - 0.0 - - 10 - - - -
22/11:00pm 14.1 NNE 7 9 1013.0 - 0.0 - - 10 - - - -
22/10:30pm 13.7 ENE 5 5 1013.5 - 0.0 - - 10 - - - -
22/10:00pm 14.5 NE 5 5 1014.0 - 0.0 - - 10 - - - -
22/09:30pm 14.6 NE 4 5 1014.0 - 0.0 - - 10 - - - -
22/09:00pm 16.6 NW 4 5 1013.8 - 0.0 - - 10 - - - -
22/08:30pm 17.5 NW 6 7 1013.8 - 0.0 - - 10 - - - -
22/08:00pm 18.5 NW 6 7 1013.8 - 0.0 - - 10 - - - -
22/07:30pm 19.2 WNW 7 8 1013.9 - 0.0 - - 10 - - - -
22/07:00pm 19.5 WNW 6 8 1013.7 - 0.0 - - 10 - - - -
22/06:30pm 19.2 WSW 6 8 1013.7 - 0.0 - - 10 - - - -
22/06:00pm 19.5 WSW 7 8 1013.7 - 0.0 - - 10 - - - -
22/05:30pm 19.6 WSW 8 10 1013.8 - 0.0 - - 10 - - - -
22/05:00pm 19.7 WSW 8 10 1014.2 - 0.0 - - 10 - - - -
22/04:30pm 19.3 WSW 8 10 1014.4 - 0.0 - - 10 - - - -
22/04:00pm 19.5 SW 8 10 1014.5 - 0.0 - - 10 - - - -
22/03:30pm 19.6 WSW 8 11 1014.7 - 0.0 - - 10 - - - -
22/03:00pm 19.4 WSW 9 12 1015.0 - 0.0 - - 10 - - - -
22/02:30pm 19.4 WSW 10 13 1015.1 - 0.0 - - 10 - - - -
22/02:00pm 19.4 WSW 10 14 1015.2 - 0.0 - Partly cloudy 10 - - - -
22/01:30pm 18.9 WSW 9 13 1015.5 - 0.0 - Partly cloudy 10 - - - -
22/01:00pm 19.4 WSW 10 14 1015.7 - 0.0 - Partly cloudy 10 - - - -
22/12:30pm 19.2 WSW 10 13 1015.8 - 0.0 - - 10 - - - -
22/12:00pm 19.2 W 10 14 1016.0 - 0.0 - - 10 - - - -
22/11:30am 19.3 W 10 13 1016.1 - 0.0 - Partly cloudy 10 - - - -
22/11:00am 19.1 W 11 14 1016.2 - 0.0 - Partly cloudy 10 - - - -
22/10:30am 18.5 W 10 14 1016.2 - 0.0 - Partly cloudy 10 - - - -
22/10:00am 18.1 W 9 11 1016.3 - 0.0 - - 10 - - - -
22/09:30am 17.8 W 10 13 1016.3 - 0.0 - - 10 - - - -
22/09:00am 17.8 WNW 8 10 1016.3 - 0.0 - - 10 - - - -
22/08:30am 17.7 WNW 8 10 1016.3 - 0.0 - - 10 - - - -
22/08:00am 17.1 WNW 9 10 1016.1 - 0.0 - - 10 - - - -
22/07:30am 16.8 W 8 10 1015.9 - 0.0 - - 10 - - - -
22/07:00am 15.9 WNW 8 10 1015.5 - 0.0 - - 10 - - - -
22/06:30am 15.2 WNW 8 10 1015.3 - 0.0 - - 10 - - - -
22/06:00am 15.0 WNW 9 13 1015.1 - 0.0 - - 10 - - - -
22/05:30am 14.9 WNW 8 10 1014.9 - 0.0 - - 10 - - - -
22/05:00am 14.9 WNW 10 13 1014.6 - 0.0 - Partly cloudy 10 - - - -
22/04:30am 15.3 W 10 12 1014.3 - 0.0 - Partly cloudy 10 - - - -
22/04:20am 15.3 W 9 12 1014.2 - 0.0 - Partly cloudy 10 - - - -
22/04:00am 15.7 W 11 15 1014.3 - 0.0 - Partly cloudy 10 - - - -
22/03:52am 15.9 W 11 15 1014.3 - 0.0 - Partly cloudy 10 - - - -
22/03:43am 16.0 W 11 15 1014.3 - 0.0 - Partly cloudy 10 - - - -
22/03:30am 16.0 W 13 16 1014.3 - 0.0 - Partly cloudy 10 - - - -
22/03:00am 16.2 W 15 16 1014.3 - 0.0 - Cloudy 10 - - - -
22/02:30am 16.2 W 14 16 1014.3 - 0.0 - Partly cloudy 10 - - - -

Other Formats:

Comma delimited format used in spreadsheet applications
http://www.bom.gov.au/fwo/IDT60701/IDT60701.94980.axf

JavaScript Object Notation format (JSON) in row-major order
http://www.bom.gov.au/fwo/IDT60701/IDT60701.94980.json